Latest Weather Observations for Gunnedah Airport

IDN60801

Issued at 1:32 pm EST Saturday 23 September 2017 (issued every 30 minutes, with the page automatically refreshed every 10 minutes)

About weather observations | Map of weather stations | Latest weather observations for NSW | Other Formats
Station Details ID: 055202 Name: GUNNEDAH AIRPORT AWS Lat: -30.95 Lon: 150.25 Height: 262.57 m
Data from the previous 72 hours. | See also: Recent months at Gunnedah Airport
Date/Time
EST
Temp
°C
App
Temp
°C
Dew
Point
°C
Rel
Hum
%
Delta-T
°C
Wind Press
QNH
hPa
Press
MSL
hPa
Rain since
9am
mm
Dir  Spd
km/h
Gust
km/h
Spd
kts
Gust
kts
23/01:30pm 34.4 26.1 -0.3 11 17.2 NNW 33 50 18 27 1008.3 1008.0 0.0
23/01:08pm 33.1 25.9 1.0 13 16.1 NNW 28 50 15 27 1008.8 1008.5 0.0
23/01:00pm 32.7 26.8 1.7 14 15.7 NNW 22 32 12 17 1009.1 1008.8 0.0
23/12:30pm 31.9 26.6 3.0 16 14.9 NNW 20 30 11 16 1009.6 1009.3 0.0
23/12:00pm 30.9 25.4 3.8 18 14.1 NNW 22 32 12 17 1010.3 1010.0 0.0
23/11:30am 30.2 25.7 4.0 19 13.6 NNW 17 24 9 13 1011.1 1010.8 0.0
23/11:00am 28.8 26.5 5.6 23 12.3 NW 7 13 4 7 1011.8 1011.5 0.0
23/10:30am 27.0 24.5 6.4 27 10.9 NE 9 15 5 8 1012.5 1012.2 0.0
23/10:00am 25.6 24.0 6.3 29 10.1 ESE 4 11 2 6 1013.0 1012.7 0.0
23/09:30am 25.2 22.0 6.9 31 9.7 SW 13 20 7 11 1013.8 1013.6 0.0
23/09:00am 23.9 21.0 6.7 33 9.0 SSE 11 13 6 7 1013.6 1013.4 0.0
23/08:30am 22.6 19.2 6.0 34 8.5 SE 13 17 7 9 1013.6 1013.4 0.0
23/08:00am 18.6 15.7 4.4 39 6.9 S 9 13 5 7 1013.9 1013.7 0.0
23/07:30am 17.3 13.6 4.3 42 6.2 S 13 17 7 9 1013.7 1013.5 0.0
23/07:00am 16.4 12.3 4.4 45 5.7 S 15 19 8 10 1013.4 1013.1 0.0
23/06:30am 13.9 10.4 3.7 50 4.7 SSE 11 13 6 7 1012.9 1012.6 0.0
23/06:00am 13.9 9.5 2.8 47 5.0 SE 15 19 8 10 1012.8 1012.5 0.0
23/05:30am 13.9 9.6 3.1 48 4.9 SSE 15 19 8 10 1012.7 1012.4 0.0
23/05:00am 14.1 9.4 3.3 48 4.9 SSE 17 20 9 11 1012.8 1012.5 0.0
23/04:30am 12.5 8.7 3.7 55 4.0 SSE 13 17 7 9 1012.7 1012.4 0.0
23/04:00am 10.4 6.8 3.0 60 3.3 SE 11 11 6 6 1012.5 1012.2 0.0
23/03:30am 9.4 4.7 2.9 64 2.8 SE 17 17 9 9 1012.5 1012.2 0.0
23/03:00am 9.4 5.8 2.9 64 2.8 SSE 11 13 6 7 1012.5 1012.2 0.0
23/02:30am 10.5 7.3 3.3 61 3.2 SSE 9 11 5 6 1012.7 1012.4 0.0
23/02:00am 10.9 7.7 3.2 59 3.4 SSE 9 11 5 6 1012.8 1012.5 0.0
23/01:30am 9.9 6.3 3.2 63 2.9 SSE 11 13 6 7 1013.1 1012.8 0.0
23/01:00am 9.9 6.3 3.0 62 3.0 SSE 11 13 6 7 1013.3 1013.0 0.0
23/12:30am 11.2 8.1 3.7 60 3.4 SSE 9 13 5 7 1013.5 1013.3 0.0
23/12:00am 11.0 8.0 4.0 62 3.2 SSE 9 11 5 6 1013.6 1013.4 0.0
 
Date/Time
EST
Temp
°C
App
Temp
°C
Dew
Point
°C
Rel
Hum
%
Delta-T
°C
Wind Press
QNH
hPa
Press
MSL
hPa
Rain since
9am
mm
Dir  Spd
km/h
Gust
km/h
Spd
kts
Gust
kts
22/11:30pm 10.6 7.5 3.4 61 3.2 S 9 11 5 6 1013.8 1013.6 0.0
22/11:00pm 11.3 8.3 4.1 61 3.3 S 9 11 5 6 1013.8 1013.6 0.0
22/10:30pm 11.7 8.8 4.4 61 3.3 S 9 11 5 6 1013.9 1013.7 0.0
22/10:00pm 12.5 10.3 5.2 61 3.4 SSE 6 11 3 6 1014.0 1013.8 0.0
22/09:30pm 12.7 10.2 4.7 58 3.7 S 7 9 4 5 1014.0 1013.8 0.0
22/09:00pm 13.2 10.7 4.6 56 4.0 S 7 9 4 5 1014.0 1013.8 0.0
22/08:30pm 14.3 12.3 4.6 52 4.6 SSE 4 6 2 3 1013.9 1013.7 0.0
22/08:00pm 15.6 13.0 3.4 44 5.7 S 6 7 3 4 1013.7 1013.5 0.0
22/07:30pm 17.3 14.8 3.6 40 6.5 E 6 6 3 3 1013.4 1013.1 0.0
22/07:00pm 17.5 14.8 2.7 37 6.9 WSW 6 7 3 4 1013.0 1012.7 0.0
22/06:30pm 19.6 17.0 3.3 34 7.8 N 6 7 3 4 1012.5 1012.2 0.0
22/06:00pm 22.6 19.4 3.2 28 9.4 NNE 9 11 5 6 1012.3 1012.0 0.0
22/05:30pm 26.5 23.0 1.0 19 12.2 N 9 11 5 6 1012.2 1011.9 0.0
22/05:00pm 28.8 26.0 2.1 18 13.3 N 6 7 3 4 1012.1 1011.8 0.0
22/04:30pm 28.8 25.2 2.9 19 13.1 N 11 15 6 8 1012.2 1011.9 0.0
22/04:00pm 29.6 26.4 2.8 18 13.6 WNW 9 13 5 7 1012.1 1011.8 0.0
22/03:30pm 29.5 26.2 2.7 18 13.5 NW 9 15 5 8 1012.2 1011.9 0.0
22/03:00pm 29.6 26.5 3.6 19 13.3 W 9 17 5 9 1012.6 1012.3 0.0
22/02:30pm 29.6 26.1 3.6 19 13.3 W 11 20 6 11 1012.9 1012.6 0.0
22/02:00pm 28.5 24.5 2.7 19 12.9 NW 13 20 7 11 1013.2 1012.9 0.0
22/01:30pm 28.7 24.1 1.3 17 13.4 NW 15 24 8 13 1013.5 1013.3 0.0
22/01:00pm 28.7 24.6 2.1 18 13.2 W 13 22 7 12 1013.8 1013.6 0.0
22/12:30pm 27.8 23.5 1.3 18 12.9 W 13 19 7 10 1014.1 1013.9 0.0
22/12:00pm 26.5 23.0 3.7 23 11.5 NNE 11 19 6 10 1014.6 1014.3 0.0
22/11:30am 25.8 22.8 4.3 25 10.9 NE 9 15 5 8 1015.3 1015.0 0.0
22/11:00am 25.0 22.5 4.7 27 10.3 SSW 7 13 4 7 1015.8 1015.5 0.0
22/10:30am 24.6 22.2 5.4 29 9.9 SE 7 15 4 8 1016.1 1015.8 0.0
22/10:00am 23.6 21.4 6.0 32 9.1 E 7 13 4 7 1016.4 1016.1 0.0
22/09:30am 21.9 19.5 5.3 34 8.4 E 7 15 4 8 1016.9 1016.7 0.0
22/09:00am 19.5 15.9 3.2 34 7.7 SE 11 13 6 7 1017.1 1016.9 0.0
22/08:30am 18.0 14.4 3.1 37 7.0 SE 11 15 6 8 1017.1 1016.9 0.0
22/08:00am 15.6 11.8 1.7 39 6.2 ESE 11 15 6 8 1017.0 1016.8 0.0
22/07:30am 13.5 9.1 0.2 40 5.6 SE 13 17 7 9 1017.0 1016.8 0.0
22/07:00am 11.6 7.6 0.4 46 4.7 SE 11 15 6 8 1017.0 1016.8 0.0
22/06:30am 7.7 3.4 1.1 63 2.7 SE 13 15 7 8 1016.5 1016.2 0.0
22/06:00am 5.6 1.1 -0.2 66 2.2 SSE 13 15 7 8 1016.2 1015.9 0.0
22/05:30am 6.1 1.8 -1.3 59 2.8 SE 11 15 6 8 1015.9 1015.6 0.0
22/05:00am 5.4 1.2 -0.6 65 2.3 SSE 11 15 6 8 1015.5 1015.2 0.0
22/04:30am 5.0 1.2 -0.6 67 2.1 SSE 9 11 5 6 1015.3 1015.0 0.0
22/04:00am 5.1 0.6 -0.5 67 2.1 SSE 13 15 7 8 1015.2 1014.9 0.0
22/03:30am 5.7 1.8 -1.2 61 2.6 SE 9 9 5 5 1015.2 1014.9 0.0
22/03:00am 6.7 2.8 -1.2 57 3.0 SE 9 11 5 6 1014.8 1014.5 0.0
22/02:30am 8.3 3.7 -0.7 53 3.5 SE 13 17 7 9 1014.9 1014.6 0.0
22/02:00am 7.0 2.5 0.0 61 2.8 SE 13 17 7 9 1015.1 1014.8 0.0
22/01:30am 5.4 3.3 -1.1 63 2.5 CALM 0 0 0 0 1015.5 1015.2 0.0
22/01:00am 5.1 3.1 -0.3 68 2.1 CALM 0 0 0 0 1015.6 1015.3 0.0
22/12:30am 6.2 3.9 0.3 66 2.3 ESE 2 6 1 3 1015.6 1015.3 0.0
22/12:00am 5.6 2.4 -0.4 65 2.3 ESE 6 7 3 4 1015.6 1015.3 0.0
 
Date/Time
EST
Temp
°C
App
Temp
°C
Dew
Point
°C
Rel
Hum
%
Delta-T
°C
Wind Press
QNH
hPa
Press
MSL
hPa
Rain since
9am
mm
Dir  Spd
km/h
Gust
km/h
Spd
kts
Gust
kts
21/11:30pm 7.6 5.5 1.9 67 2.4 SE 2 7 1 4 1015.8 1015.5 0.0
21/11:00pm 7.4 4.1 -0.1 59 3.0 SE 7 9 4 5 1015.8 1015.5 0.0
21/10:30pm 9.4 6.3 0.3 53 3.7 SE 6 7 3 4 1015.9 1015.6 0.0
21/10:00pm 10.5 7.3 -0.6 46 4.5 SSW 6 7 3 4 1016.1 1015.8 0.0
21/09:30pm 9.9 6.7 -0.3 49 4.1 SSW 6 7 3 4 1016.1 1015.8 0.0
21/09:00pm 11.2 9.1 -0.9 43 4.9 CALM 0 0 0 0 1016.0 1015.7 0.0
21/08:30pm 11.7 8.7 -1.8 39 5.4 WSW 4 7 2 4 1015.9 1015.6 0.0
21/08:00pm 13.5 9.9 -2.0 34 6.3 S 7 7 4 4 1015.8 1015.5 0.0
21/07:30pm 15.3 11.8 -2.6 29 7.3 SSE 6 7 3 4 1015.7 1015.4 0.0
21/07:00pm 16.1 12.5 -3.4 26 7.8 SE 6 7 3 4 1015.4 1015.1 0.0
21/06:30pm 17.3 15.0 -2.4 26 8.2 CALM 0 0 0 0 1015.0 1014.7 0.0
21/06:00pm 19.6 17.6 0.1 27 8.7 CALM 0 0 0 0 1014.6 1014.3 0.0
21/05:30pm 24.5 21.3 -6.7 12 12.8 NW 2 6 1 3 1014.3 1014.0 0.0
21/05:00pm 25.3 20.8 -7.2 11 13.3 NW 9 13 5 7 1014.0 1013.8 0.0
21/04:30pm 25.9 21.1 -5.6 12 13.3 NW 11 15 6 8 1013.9 1013.7 0.0
21/04:00pm 26.4 21.9 -6.4 11 13.7 WNW 9 15 5 8 1014.0 1013.8 0.0
21/03:30pm 25.9 20.6 -6.8 11 13.5 NNW 13 20 7 11 1014.3 1014.0 0.0
21/03:00pm 26.5 21.7 -6.3 11 13.8 NNW 11 26 6 14 1014.4 1014.1 0.0
21/02:30pm 26.8 21.2 -6.1 11 13.9 WNW 15 24 8 13 1014.7 1014.4 0.0
21/02:00pm 26.6 21.1 -5.1 12 13.6 NW 15 26 8 14 1015.0 1014.7 0.0
21/01:30pm 26.2 20.7 -5.4 12 13.5 NW 15 26 8 14 1015.5 1015.2 0.0
21/01:00pm 25.8 19.4 -4.7 13 13.1 NW 20 28 11 15 1015.8 1015.5 0.0
21/12:30pm 25.6 19.9 -3.8 14 12.8 NW 17 30 9 16 1016.5 1016.2 0.0
21/12:00pm 24.6 18.7 -5.6 13 12.6 WNW 17 30 9 16 1017.1 1016.9 0.0
21/11:30am 23.6 17.6 -6.4 13 12.2 NNW 17 28 9 15 1017.7 1017.5 0.0
21/11:00am 23.4 18.2 -6.5 13 12.1 NW 13 20 7 11 1017.9 1017.7 0.0
21/10:30am 21.9 18.2 -5.0 16 11.1 ENE 6 9 3 5 1018.4 1018.1 0.0
21/10:00am 20.5 16.6 -4.6 18 10.3 E 7 11 4 6 1018.6 1018.3 0.0
21/09:30am 18.7 14.7 -2.3 24 8.9 SE 9 15 5 8 1018.7 1018.4 0.0
21/09:00am 16.7 12.8 -1.4 29 7.6 ESE 9 13 5 7 1018.8 1018.5 0.0
21/08:30am 14.9 11.1 -0.8 34 6.6 E 9 13 5 7 1019.0 1018.7 0.0
21/08:00am 12.6 9.1 -1.3 38 5.6 ESE 7 13 4 7 1019.0 1018.7 0.0
21/07:30am 10.6 6.8 -0.8 45 4.6 SE 9 13 5 7 1018.8 1018.5 0.0
21/07:00am 8.7 5.1 0.4 56 3.4 SE 9 11 5 6 1018.6 1018.3 0.0
21/06:30am 4.9 1.0 -1.3 64 2.3 SE 9 11 5 6 1018.0 1017.8 0.0
21/06:00am 3.1 -1.7 -2.6 66 2.0 SSE 13 13 7 7 1017.6 1017.4 0.0
21/05:30am 3.7 -0.2 -1.6 68 1.9 SE 9 11 5 6 1017.4 1017.2 0.0
21/05:00am 4.8 0.2 -1.4 64 2.3 SE 13 15 7 8 1017.2 1017.0 0.0
21/04:30am 3.0 -0.7 -2.5 67 1.9 SE 7 9 4 5 1017.0 1016.8 0.0
21/04:00am 2.7 -0.4 -2.6 68 1.9 S 4 7 2 4 1016.9 1016.7 0.0
21/03:30am 2.2 -1.3 -2.5 71 1.6 E 6 7 3 4 1016.8 1016.6 0.0
21/03:00am 1.8 -1.7 -3.1 70 1.7 SE 6 11 3 6 1016.8 1016.6 0.0
21/02:30am 2.8 0.5 -2.1 70 1.7 CALM 0 0 0 0 1016.8 1016.6 0.0
21/02:00am 3.1 0.8 -2.4 67 2.0 CALM 0 0 0 0 1017.2 1017.0 0.0
21/01:30am 3.3 -0.6 -1.6 70 1.8 ESE 9 9 5 5 1017.4 1017.2 0.0
21/01:00am 2.9 0.2 -2.8 66 2.0 ENE 2 7 1 4 1017.6 1017.4 0.0
21/12:30am 4.7 2.5 -1.5 64 2.3 CALM 0 0 0 0 1017.5 1017.3 0.0
21/12:00am 4.7 0.7 -2.2 61 2.5 SE 9 11 5 6 1017.7 1017.5 0.0
 
Date/Time
EST
Temp
°C
App
Temp
°C
Dew
Point
°C
Rel
Hum
%
Delta-T
°C
Wind Press
QNH
hPa
Press
MSL
hPa
Rain since
9am
mm
Dir  Spd
km/h
Gust
km/h
Spd
kts
Gust
kts
20/11:30pm 5.7 1.7 -1.9 58 2.8 ESE 9 11 5 6 1017.9 1017.7 0.0
20/11:00pm 4.1 0.4 -2.5 62 2.4 E 7 11 4 6 1017.9 1017.7 0.0
20/10:30pm 4.7 1.0 -3.3 56 2.8 NNE 7 15 4 8 1017.9 1017.7 0.0
20/10:00pm 7.1 2.9 -3.7 46 3.9 W 9 13 5 7 1018.0 1017.8 0.0
20/09:30pm 7.5 5.1 -3.4 46 4.0 CALM 0 0 0 0 1017.8 1017.6 0.0
20/09:00pm 8.9 6.5 -3.0 43 4.5 CALM 0 0 0 0 1017.7 1017.5 0.0
20/08:30pm 9.3 5.6 -2.9 42 4.6 SSW 7 15 4 8 1017.7 1017.5 0.0
20/08:00pm 8.4 4.7 -2.8 45 4.2 S 7 9 4 5 1017.5 1017.3 0.0
20/07:30pm 12.8 10.5 -2.6 34 6.1 CALM 0 0 0 0 1017.2 1017.0 0.0
20/07:00pm 14.4 11.8 -4.8 26 7.4 CALM 0 0 0 0 1017.0 1016.8 0.0
20/06:30pm 14.4 10.4 -5.3 25 7.5 ESE 7 9 4 5 1016.7 1016.4 0.0
20/06:00pm 18.4 13.6 -6.3 18 9.6 ESE 11 13 6 7 1016.3 1016.0 0.0
20/05:30pm 19.5 15.6 -7.0 16 10.3 NE 6 15 3 8 1016.2 1015.9 0.0
20/05:00pm 22.2 19.3 -7.5 13 11.7 CALM 0 0 0 0 1016.1 1015.8 0.0
20/04:30pm 22.6 18.4 -8.2 12 12.0 N 7 11 4 6 1016.0 1015.7 0.0
20/04:00pm 23.4 18.8 -7.6 12 12.3 NW 9 15 5 8 1015.9 1015.6 0.0
20/03:30pm 23.6 19.0 -7.4 12 12.4 WNW 9 15 5 8 1015.8 1015.5 0.0
20/03:00pm 24.0 19.1 -7.1 12 12.6 NNW 11 17 6 9 1015.9 1015.6 0.0
20/02:30pm 23.1 19.0 -6.8 13 12.1 ENE 7 13 4 7 1016.1 1015.8 0.0
20/02:00pm 22.7 18.3 -6.1 14 11.7 S 9 13 5 7 1016.5 1016.2 0.0

Other Formats:

Comma delimited format used in spreadsheet applications
http://www.bom.gov.au/fwo/IDN60801/IDN60801.95740.axf

JavaScript Object Notation format (JSON) in row-major order
http://www.bom.gov.au/fwo/IDN60801/IDN60801.95740.json